sensor_id;sensor_type;location;lat;lon;timestamp;pressure;altitude;pressure_sealevel;temperature
70668;BMP280;58242;51.250;-1.118;2022-07-29T00:00:23;100485.59;;;22.75
70668;BMP280;58242;51.250;-1.118;2022-07-29T00:02:48;100484.44;;;22.72
70668;BMP280;58242;51.250;-1.118;2022-07-29T00:05:13;100476.66;;;22.71
70668;BMP280;58242;51.250;-1.118;2022-07-29T00:07:39;100475.50;;;22.68
70668;BMP280;58242;51.250;-1.118;2022-07-29T00:10:06;100489.91;;;22.69
70668;BMP280;58242;51.250;-1.118;2022-07-29T00:12:31;100483.66;;;22.68
70668;BMP280;58242;51.250;-1.118;2022-07-29T00:14:57;100483.69;;;22.65
70668;BMP280;58242;51.250;-1.118;2022-07-29T00:17:23;100488.34;;;22.64
70668;BMP280;58242;51.250;-1.118;2022-07-29T00:19:49;100485.22;;;22.63
70668;BMP280;58242;51.250;-1.118;2022-07-29T00:22:15;100484.44;;;22.62
70668;BMP280;58242;51.250;-1.118;2022-07-29T00:24:40;100482.13;;;22.61
70668;BMP280;58242;51.250;-1.118;2022-07-29T00:27:06;100473.53;;;22.59
70668;BMP280;58242;51.250;-1.118;2022-07-29T00:29:31;100475.91;;;22.57
70668;BMP280;58242;51.250;-1.118;2022-07-29T00:31:56;100469.69;;;22.53
70668;BMP280;58242;51.250;-1.118;2022-07-29T00:34:22;100476.28;;;22.52
70668;BMP280;58242;51.250;-1.118;2022-07-29T00:37:06;100468.09;;;22.48
70668;BMP280;58242;51.250;-1.118;2022-07-29T00:39:31;100468.88;;;22.45
70668;BMP280;58242;51.250;-1.118;2022-07-29T00:41:57;100475.09;;;22.43
70668;BMP280;58242;51.250;-1.118;2022-07-29T00:44:22;100475.09;;;22.39
70668;BMP280;58242;51.250;-1.118;2022-07-29T00:46:48;100476.28;;;22.35
70668;BMP280;58242;51.250;-1.118;2022-07-29T00:49:13;100470.81;;;22.31
70668;BMP280;58242;51.250;-1.118;2022-07-29T00:51:39;100467.31;;;22.27
70668;BMP280;58242;51.250;-1.118;2022-07-29T00:54:05;100475.13;;;22.26
70668;BMP280;58242;51.250;-1.118;2022-07-29T00:56:31;100475.50;;;22.21
70668;BMP280;58242;51.250;-1.118;2022-07-29T00:58:58;100472.41;;;22.19
70668;BMP280;58242;51.250;-1.118;2022-07-29T01:01:24;100466.97;;;22.15
70668;BMP280;58242;51.250;-1.118;2022-07-29T01:03:49;100466.56;;;22.13
70668;BMP280;58242;51.250;-1.118;2022-07-29T01:06:18;100458.38;;;22.10
70668;BMP280;58242;51.250;-1.118;2022-07-29T01:08:45;100465.78;;;22.06
70668;BMP280;58242;51.250;-1.118;2022-07-29T01:11:11;100462.69;;;22.04
70668;BMP280;58242;51.250;-1.118;2022-07-29T01:13:37;100475.88;;;22.02
70668;BMP280;58242;51.250;-1.118;2022-07-29T01:16:09;100461.91;;;22.00
70668;BMP280;58242;51.250;-1.118;2022-07-29T01:18:39;100459.19;;;21.97
70668;BMP280;58242;51.250;-1.118;2022-07-29T01:24:05;100463.84;;;21.90
70668;BMP280;58242;51.250;-1.118;2022-07-29T01:26:41;100476.22;;;21.77
70668;BMP280;58242;51.250;-1.118;2022-07-29T01:31:47;100459.09;;;21.80
70668;BMP280;58242;51.250;-1.118;2022-07-29T01:37:20;100471.16;;;21.72
70668;BMP280;58242;51.250;-1.118;2022-07-29T01:39:49;100469.22;;;21.69
70668;BMP280;58242;51.250;-1.118;2022-07-29T01:42:23;100472.72;;;21.66
70668;BMP280;58242;51.250;-1.118;2022-07-29T01:44:59;100471.16;;;21.65
70668;BMP280;58242;51.250;-1.118;2022-07-29T01:47:33;100463.34;;;21.60
70668;BMP280;58242;51.250;-1.118;2022-07-29T01:50:01;100464.53;;;21.59
70668;BMP280;58242;51.250;-1.118;2022-07-29T01:52:46;100470.72;;;21.60
70668;BMP280;58242;51.250;-1.118;2022-07-29T01:55:15;100469.97;;;21.59
70668;BMP280;58242;51.250;-1.118;2022-07-29T01:57:44;100476.59;;;21.62
70668;BMP280;58242;51.250;-1.118;2022-07-29T02:00:11;100469.59;;;21.64
70668;BMP280;58242;51.250;-1.118;2022-07-29T02:02:39;100471.16;;;21.65
70668;BMP280;58242;51.250;-1.118;2022-07-29T02:05:07;100473.09;;;21.65
70668;BMP280;58242;51.250;-1.118;2022-07-29T02:07:35;100474.66;;;21.66
70668;BMP280;58242;51.250;-1.118;2022-07-29T02:10:03;100478.53;;;21.68
70668;BMP280;58242;51.250;-1.118;2022-07-29T02:12:31;100473.50;;;21.70
70668;BMP280;58242;51.250;-1.118;2022-07-29T02:14:59;100473.88;;;21.72
70668;BMP280;58242;51.250;-1.118;2022-07-29T02:17:35;100467.28;;;21.73
70668;BMP280;58242;51.250;-1.118;2022-07-29T02:20:04;100475.06;;;21.75
70668;BMP280;58242;51.250;-1.118;2022-07-29T02:22:33;100464.19;;;21.78
70668;BMP280;58242;51.250;-1.118;2022-07-29T02:25:00;100470.00;;;21.80
70668;BMP280;58242;51.250;-1.118;2022-07-29T02:27:26;100462.66;;;21.84
70668;BMP280;58242;51.250;-1.118;2022-07-29T02:29:54;100465.78;;;21.86
70668;BMP280;58242;51.250;-1.118;2022-07-29T02:32:21;100457.19;;;21.87
70668;BMP280;58242;51.250;-1.118;2022-07-29T02:34:48;100456.81;;;21.89
70668;BMP280;58242;51.250;-1.118;2022-07-29T02:37:16;100464.22;;;21.92
70668;BMP280;58242;51.250;-1.118;2022-07-29T02:39:44;100465.00;;;21.92
70668;BMP280;58242;51.250;-1.118;2022-07-29T02:42:14;100465.00;;;21.95
70668;BMP280;58242;51.250;-1.118;2022-07-29T02:44:41;100469.28;;;21.96
70668;BMP280;58242;51.250;-1.118;2022-07-29T02:47:20;100461.50;;;21.98
70668;BMP280;58242;51.250;-1.118;2022-07-29T02:54:58;100468.50;;;21.99
70668;BMP280;58242;51.250;-1.118;2022-07-29T03:00:04;100461.13;;;22.00
70668;BMP280;58242;51.250;-1.118;2022-07-29T03:02:33;100459.56;;;21.99
70668;BMP280;58242;51.250;-1.118;2022-07-29T03:05:00;100466.56;;;21.96
70668;BMP280;58242;51.250;-1.118;2022-07-29T03:07:27;100466.56;;;21.96
70668;BMP280;58242;51.250;-1.118;2022-07-29T03:09:53;100458.41;;;21.96
70668;BMP280;58242;51.250;-1.118;2022-07-29T03:12:19;100457.19;;;21.97
70668;BMP280;58242;51.250;-1.118;2022-07-29T03:14:46;100463.84;;;21.96
70668;BMP280;58242;51.250;-1.118;2022-07-29T03:17:12;100461.13;;;21.96
70668;BMP280;58242;51.250;-1.118;2022-07-29T03:19:38;100460.34;;;21.96
70668;BMP280;58242;51.250;-1.118;2022-07-29T03:22:04;100465.00;;;21.95
70668;BMP280;58242;51.250;-1.118;2022-07-29T03:24:35;100464.22;;;21.95
70668;BMP280;58242;51.250;-1.118;2022-07-29T03:27:01;100464.22;;;21.95
70668;BMP280;58242;51.250;-1.118;2022-07-29T03:29:27;100457.59;;;21.93
70668;BMP280;58242;51.250;-1.118;2022-07-29T03:31:53;100453.31;;;21.88
70668;BMP280;58242;51.250;-1.118;2022-07-29T03:34:18;100463.06;;;21.86
70668;BMP280;58242;51.250;-1.118;2022-07-29T03:36:44;100456.81;;;21.82
70668;BMP280;58242;51.250;-1.118;2022-07-29T03:39:11;100464.22;;;21.81
70668;BMP280;58242;51.250;-1.118;2022-07-29T03:41:40;100468.44;;;21.76
70668;BMP280;58242;51.250;-1.118;2022-07-29T03:44:07;100470.38;;;21.72
70668;BMP280;58242;51.250;-1.118;2022-07-29T03:46:35;100474.66;;;21.69
70668;BMP280;58242;51.250;-1.118;2022-07-29T03:49:03;100472.72;;;21.66
70668;BMP280;58242;51.250;-1.118;2022-07-29T03:51:29;100472.28;;;21.61
70668;BMP280;58242;51.250;-1.118;2022-07-29T03:53:55;100466.47;;;21.59
70668;BMP280;58242;51.250;-1.118;2022-07-29T03:56:22;100466.06;;;21.57
70668;BMP280;58242;51.250;-1.118;2022-07-29T03:58:51;100471.91;;;21.56
70668;BMP280;58242;51.250;-1.118;2022-07-29T04:01:18;100473.06;;;21.55
70668;BMP280;58242;51.250;-1.118;2022-07-29T04:03:44;100465.28;;;21.53
70668;BMP280;58242;51.250;-1.118;2022-07-29T04:06:14;100465.69;;;21.52
70668;BMP280;58242;51.250;-1.118;2022-07-29T04:08:40;100468.41;;;21.52
70668;BMP280;58242;51.250;-1.118;2022-07-29T04:11:05;100467.63;;;21.51
70668;BMP280;58242;51.250;-1.118;2022-07-29T04:13:31;100471.13;;;21.52
70668;BMP280;58242;51.250;-1.118;2022-07-29T04:15:57;100479.28;;;21.52
70668;BMP280;58242;51.250;-1.118;2022-07-29T04:18:23;100479.66;;;21.50
70668;BMP280;58242;51.250;-1.118;2022-07-29T04:20:48;100488.19;;;21.49
70668;BMP280;58242;51.250;-1.118;2022-07-29T04:23:14;100486.66;;;21.48
70668;BMP280;58242;51.250;-1.118;2022-07-29T04:25:40;100482.75;;;21.45
70668;BMP280;58242;51.250;-1.118;2022-07-29T04:28:06;100491.31;;;21.44
70668;BMP280;58242;51.250;-1.118;2022-07-29T04:30:33;100483.53;;;21.42
70668;BMP280;58242;51.250;-1.118;2022-07-29T04:33:00;100488.97;;;21.42
70668;BMP280;58242;51.250;-1.118;2022-07-29T04:35:26;100490.13;;;21.42
70668;BMP280;58242;51.250;-1.118;2022-07-29T04:37:52;100492.84;;;21.42
70668;BMP280;58242;51.250;-1.118;2022-07-29T04:40:17;100485.84;;;21.41
70668;BMP280;58242;51.250;-1.118;2022-07-29T04:42:43;100484.31;;;21.43
70668;BMP280;58242;51.250;-1.118;2022-07-29T04:45:08;100486.66;;;21.44
70668;BMP280;58242;51.250;-1.118;2022-07-29T04:47:34;100483.53;;;21.46
70668;BMP280;58242;51.250;-1.118;2022-07-29T04:49:59;100485.09;;;21.47
70668;BMP280;58242;51.250;-1.118;2022-07-29T04:52:25;100476.53;;;21.48
70668;BMP280;58242;51.250;-1.118;2022-07-29T04:54:50;100484.31;;;21.50
70668;BMP280;58242;51.250;-1.118;2022-07-29T04:57:16;100486.25;;;21.53
70668;BMP280;58242;51.250;-1.118;2022-07-29T04:59:41;100483.53;;;21.56
70668;BMP280;58242;51.250;-1.118;2022-07-29T05:02:06;100482.41;;;21.60
70668;BMP280;58242;51.250;-1.118;2022-07-29T05:04:32;100490.19;;;21.65
70668;BMP280;58242;51.250;-1.118;2022-07-29T05:06:57;100484.38;;;21.70
70668;BMP280;58242;51.250;-1.118;2022-07-29T05:09:22;100477.00;;;21.74
70668;BMP280;58242;51.250;-1.118;2022-07-29T05:11:48;100480.09;;;21.79
70668;BMP280;58242;51.250;-1.118;2022-07-29T05:14:13;100491.03;;;21.83
70668;BMP280;58242;51.250;-1.118;2022-07-29T05:16:38;100483.66;;;21.87
70668;BMP280;58242;51.250;-1.118;2022-07-29T05:19:05;100496.88;;;21.92
70668;BMP280;58242;51.250;-1.118;2022-07-29T05:21:31;100496.50;;;21.96
70668;BMP280;58242;51.250;-1.118;2022-07-29T05:23:56;100491.84;;;22.00
70668;BMP280;58242;51.250;-1.118;2022-07-29T05:26:22;100494.56;;;22.04
70668;BMP280;58242;51.250;-1.118;2022-07-29T05:28:47;100494.56;;;22.07
70668;BMP280;58242;51.250;-1.118;2022-07-29T05:31:13;100493.41;;;22.11
70668;BMP280;58242;51.250;-1.118;2022-07-29T05:33:40;100496.13;;;22.15
70668;BMP280;58242;51.250;-1.118;2022-07-29T05:36:06;100506.25;;;22.18
70668;BMP280;58242;51.250;-1.118;2022-07-29T05:38:35;100496.91;;;22.22
70668;BMP280;58242;51.250;-1.118;2022-07-29T05:41:00;100496.50;;;22.24
70668;BMP280;58242;51.250;-1.118;2022-07-29T05:43:27;100502.72;;;22.27
70668;BMP280;58242;51.250;-1.118;2022-07-29T05:45:53;100497.31;;;22.31
70668;BMP280;58242;51.250;-1.118;2022-07-29T05:48:18;100499.63;;;22.32
70668;BMP280;58242;51.250;-1.118;2022-07-29T05:50:43;100507.00;;;22.35
70668;BMP280;58242;51.250;-1.118;2022-07-29T05:53:09;100505.47;;;22.38
70668;BMP280;58242;51.250;-1.118;2022-07-29T05:55:34;100505.06;;;22.43
70668;BMP280;58242;51.250;-1.118;2022-07-29T05:57:59;100504.28;;;22.49
70668;BMP280;58242;51.250;-1.118;2022-07-29T06:00:25;100513.28;;;22.53
70668;BMP280;58242;51.250;-1.118;2022-07-29T06:02:50;100519.50;;;22.57
70668;BMP280;58242;51.250;-1.118;2022-07-29T06:05:16;100521.81;;;22.62
70668;BMP280;58242;51.250;-1.118;2022-07-29T06:07:42;100515.59;;;22.64
70668;BMP280;58242;51.250;-1.118;2022-07-29T06:10:08;100523.38;;;22.69
70668;BMP280;58242;51.250;-1.118;2022-07-29T06:12:33;100522.19;;;22.77
70668;BMP280;58242;51.250;-1.118;2022-07-29T06:14:59;100524.13;;;22.83
70668;BMP280;58242;51.250;-1.118;2022-07-29T06:17:24;100523.72;;;22.88
70668;BMP280;58242;51.250;-1.118;2022-07-29T06:19:50;100531.50;;;22.93
70668;BMP280;58242;51.250;-1.118;2022-07-29T06:22:16;100523.72;;;22.95
70668;BMP280;58242;51.250;-1.118;2022-07-29T06:24:42;100520.59;;;22.97
70668;BMP280;58242;51.250;-1.118;2022-07-29T06:27:10;100510.84;;;22.96
70668;BMP280;58242;51.250;-1.118;2022-07-29T06:29:35;100516.31;;;22.92
70668;BMP280;58242;51.250;-1.118;2022-07-29T06:32:01;100521.00;;;22.85
70668;BMP280;58242;51.250;-1.118;2022-07-29T06:34:27;100527.66;;;22.84
70668;BMP280;58242;51.250;-1.118;2022-07-29T06:36:52;100523.34;;;22.83
70668;BMP280;58242;51.250;-1.118;2022-07-29T06:39:18;100524.91;;;22.84
70668;BMP280;58242;51.250;-1.118;2022-07-29T06:41:47;100519.84;;;22.86
70668;BMP280;58242;51.250;-1.118;2022-07-29T06:44:14;100529.16;;;22.88
70668;BMP280;58242;51.250;-1.118;2022-07-29T06:46:39;100520.22;;;22.91
70668;BMP280;58242;51.250;-1.118;2022-07-29T06:49:04;100519.03;;;22.96
70668;BMP280;58242;51.250;-1.118;2022-07-29T06:51:30;100525.66;;;23.01
70668;BMP280;58242;51.250;-1.118;2022-07-29T06:53:55;100525.63;;;23.08
70668;BMP280;58242;51.250;-1.118;2022-07-29T06:56:22;100527.94;;;23.16
70668;BMP280;58242;51.250;-1.118;2022-07-29T06:58:47;100536.13;;;23.23
70668;BMP280;58242;51.250;-1.118;2022-07-29T07:01:13;100541.16;;;23.32
70668;BMP280;58242;51.250;-1.118;2022-07-29T07:03:38;100538.41;;;23.38
70668;BMP280;58242;51.250;-1.118;2022-07-29T07:06:04;100530.19;;;23.45
70668;BMP280;58242;51.250;-1.118;2022-07-29T07:08:29;100545.69;;;23.65
70668;BMP280;58242;51.250;-1.118;2022-07-29T07:10:54;100546.25;;;24.06
70668;BMP280;58242;51.250;-1.118;2022-07-29T07:13:21;100540.28;;;24.74
70668;BMP280;58242;51.250;-1.118;2022-07-29T07:15:46;100541.31;;;25.55
70668;BMP280;58242;51.250;-1.118;2022-07-29T07:18:14;100551.44;;;26.42
70668;BMP280;58242;51.250;-1.118;2022-07-29T07:20:40;100546.75;;;27.29
70668;BMP280;58242;51.250;-1.118;2022-07-29T07:23:06;100537.84;;;28.13
70668;BMP280;58242;51.250;-1.118;2022-07-29T07:25:31;100539.78;;;28.94
70668;BMP280;58242;51.250;-1.118;2022-07-29T07:27:56;100536.00;;;29.71
70668;BMP280;58242;51.250;-1.118;2022-07-29T07:30:22;100533.22;;;30.35
70668;BMP280;58242;51.250;-1.118;2022-07-29T07:32:47;100535.75;;;30.99
70668;BMP280;58242;51.250;-1.118;2022-07-29T07:35:13;100535.34;;;31.63
70668;BMP280;58242;51.250;-1.118;2022-07-29T07:37:39;100539.03;;;32.20
70668;BMP280;58242;51.250;-1.118;2022-07-29T07:40:09;100546.44;;;32.70
70668;BMP280;58242;51.250;-1.118;2022-07-29T07:42:36;100545.91;;;33.01
70668;BMP280;58242;51.250;-1.118;2022-07-29T07:45:01;100546.97;;;33.47
70668;BMP280;58242;51.250;-1.118;2022-07-29T07:47:27;100554.34;;;33.85
70668;BMP280;58242;51.250;-1.118;2022-07-29T07:49:52;100541.13;;;34.20
70668;BMP280;58242;51.250;-1.118;2022-07-29T07:52:20;100546.72;;;34.52
70668;BMP280;58242;51.250;-1.118;2022-07-29T07:54:46;100543.03;;;34.78
70668;BMP280;58242;51.250;-1.118;2022-07-29T07:57:12;100546.19;;;35.08
70668;BMP280;58242;51.250;-1.118;2022-07-29T07:59:38;100555.31;;;35.45
70668;BMP280;58242;51.250;-1.118;2022-07-29T08:02:04;100552.66;;;35.79
70668;BMP280;58242;51.250;-1.118;2022-07-29T08:04:29;100550.97;;;36.10
70668;BMP280;58242;51.250;-1.118;2022-07-29T08:06:56;100554.75;;;36.40
70668;BMP280;58242;51.250;-1.118;2022-07-29T08:09:23;100546.88;;;36.72
70668;BMP280;58242;51.250;-1.118;2022-07-29T08:11:49;100547.22;;;36.94
70668;BMP280;58242;51.250;-1.118;2022-07-29T08:14:14;100547.69;;;37.12
70668;BMP280;58242;51.250;-1.118;2022-07-29T08:16:40;100551.47;;;37.33
70668;BMP280;58242;51.250;-1.118;2022-07-29T08:19:06;100551.97;;;37.51
70668;BMP280;58242;51.250;-1.118;2022-07-29T08:21:31;100550.59;;;37.66
70668;BMP280;58242;51.250;-1.118;2022-07-29T08:23:57;100554.28;;;37.78
70668;BMP280;58242;51.250;-1.118;2022-07-29T08:26:42;100553.16;;;37.70
70668;BMP280;58242;51.250;-1.118;2022-07-29T08:29:08;100545.94;;;37.58
70668;BMP280;58242;51.250;-1.118;2022-07-29T08:31:34;100541.03;;;37.73
70668;BMP280;58242;51.250;-1.118;2022-07-29T08:34:00;100532.69;;;38.03
70668;BMP280;58242;51.250;-1.118;2022-07-29T08:36:26;100533.41;;;38.28
70668;BMP280;58242;51.250;-1.118;2022-07-29T08:38:51;100532.06;;;38.54
70668;BMP280;58242;51.250;-1.118;2022-07-29T08:41:18;100527.16;;;38.85
70668;BMP280;58242;51.250;-1.118;2022-07-29T08:43:44;100535.47;;;39.15
70668;BMP280;58242;51.250;-1.118;2022-07-29T08:46:10;100527.94;;;39.42
70668;BMP280;58242;51.250;-1.118;2022-07-29T08:48:35;100536.59;;;39.65
70668;BMP280;58242;51.250;-1.118;2022-07-29T08:51:01;100534.34;;;39.80
70668;BMP280;58242;51.250;-1.118;2022-07-29T08:53:28;100531.81;;;39.92
70668;BMP280;58242;51.250;-1.118;2022-07-29T08:55:54;100539.47;;;40.13
70668;BMP280;58242;51.250;-1.118;2022-07-29T08:58:20;100540.00;;;40.28
70668;BMP280;58242;51.250;-1.118;2022-07-29T09:00:50;100537.66;;;40.48
70668;BMP280;58242;51.250;-1.118;2022-07-29T09:03:19;100537.59;;;40.75
70668;BMP280;58242;51.250;-1.118;2022-07-29T09:05:45;100532.19;;;41.03
70668;BMP280;58242;51.250;-1.118;2022-07-29T09:08:15;100534.03;;;41.40
70668;BMP280;58242;51.250;-1.118;2022-07-29T09:10:41;100538.50;;;41.59
70668;BMP280;58242;51.250;-1.118;2022-07-29T09:13:07;100539.63;;;41.85
70668;BMP280;58242;51.250;-1.118;2022-07-29T09:15:32;100537.84;;;42.16
70668;BMP280;58242;51.250;-1.118;2022-07-29T09:17:58;100535.75;;;42.51
70668;BMP280;58242;51.250;-1.118;2022-07-29T09:20:25;100542.56;;;42.78
70668;BMP280;58242;51.250;-1.118;2022-07-29T09:22:52;100548.50;;;42.98
70668;BMP280;58242;51.250;-1.118;2022-07-29T09:25:37;100545.09;;;43.05
70668;BMP280;58242;51.250;-1.118;2022-07-29T09:28:07;100543.34;;;43.20
70668;BMP280;58242;51.250;-1.118;2022-07-29T09:30:33;100537.00;;;43.38
70668;BMP280;58242;51.250;-1.118;2022-07-29T09:33:01;100537.81;;;43.51
70668;BMP280;58242;51.250;-1.118;2022-07-29T09:35:28;100532.50;;;43.65
70668;BMP280;58242;51.250;-1.118;2022-07-29T09:37:54;100533.44;;;43.86
70668;BMP280;58242;51.250;-1.118;2022-07-29T09:40:26;100531.84;;;44.21
70668;BMP280;58242;51.250;-1.118;2022-07-29T09:42:51;100536.03;;;44.45
70668;BMP280;58242;51.250;-1.118;2022-07-29T09:45:29;100530.28;;;44.50
70668;BMP280;58242;51.250;-1.118;2022-07-29T09:47:55;100534.75;;;44.59
70668;BMP280;58242;51.250;-1.118;2022-07-29T09:50:34;100530.88;;;44.74
70668;BMP280;58242;51.250;-1.118;2022-07-29T09:53:00;100529.66;;;44.95
70668;BMP280;58242;51.250;-1.118;2022-07-29T09:55:25;100525.06;;;45.30
70668;BMP280;58242;51.250;-1.118;2022-07-29T09:57:51;100517.53;;;45.45
70668;BMP280;58242;51.250;-1.118;2022-07-29T10:00:18;100523.63;;;45.49
70668;BMP280;58242;51.250;-1.118;2022-07-29T10:02:45;100520.63;;;45.54
70668;BMP280;58242;51.250;-1.118;2022-07-29T10:05:24;100524.53;;;45.64
70668;BMP280;58242;51.250;-1.118;2022-07-29T10:07:56;100516.56;;;45.75
70668;BMP280;58242;51.250;-1.118;2022-07-29T10:10:32;100523.88;;;45.91
70668;BMP280;58242;51.250;-1.118;2022-07-29T10:13:04;100523.03;;;46.03
70668;BMP280;58242;51.250;-1.118;2022-07-29T10:15:32;100518.69;;;46.22
70668;BMP280;58242;51.250;-1.118;2022-07-29T10:17:59;100523.09;;;46.30
70668;BMP280;58242;51.250;-1.118;2022-07-29T10:20:26;100519.69;;;46.24
70668;BMP280;58242;51.250;-1.118;2022-07-29T10:22:53;100523.94;;;46.18
70668;BMP280;58242;51.250;-1.118;2022-07-29T10:25:19;100523.53;;;46.14
70668;BMP280;58242;51.250;-1.118;2022-07-29T10:27:46;100517.22;;;46.21
70668;BMP280;58242;51.250;-1.118;2022-07-29T10:30:14;100516.09;;;46.44
70668;BMP280;58242;51.250;-1.118;2022-07-29T10:33:21;100521.28;;;46.60
70668;BMP280;58242;51.250;-1.118;2022-07-29T10:41:32;100517.56;;;46.72
70668;BMP280;58242;51.250;-1.118;2022-07-29T10:46:27;100507.59;;;47.05
70668;BMP280;58242;51.250;-1.118;2022-07-29T10:57:30;100498.78;;;48.60
70668;BMP280;58242;51.250;-1.118;2022-07-29T11:05:18;100510.38;;;48.55
70668;BMP280;58242;51.250;-1.118;2022-07-29T11:10:37;100498.97;;;48.77
70668;BMP280;58242;51.250;-1.118;2022-07-29T11:13:03;100515.13;;;49.13
70668;BMP280;58242;51.250;-1.118;2022-07-29T11:15:28;100514.44;;;49.43
70668;BMP280;58242;51.250;-1.118;2022-07-29T11:22:56;100517.38;;;49.60
70668;BMP280;58242;51.250;-1.118;2022-07-29T11:25:21;100519.31;;;49.50
70668;BMP280;58242;51.250;-1.118;2022-07-29T11:27:47;100515.19;;;49.44
70668;BMP280;58242;51.250;-1.118;2022-07-29T11:30:13;100512.56;;;49.31
70668;BMP280;58242;51.250;-1.118;2022-07-29T11:32:44;100502.59;;;49.23
70668;BMP280;58242;51.250;-1.118;2022-07-29T11:35:21;100515.56;;;48.95
70668;BMP280;58242;51.250;-1.118;2022-07-29T11:38:24;100527.91;;;48.75
70668;BMP280;58242;51.250;-1.118;2022-07-29T11:43:57;100516.03;;;48.62
70668;BMP280;58242;51.250;-1.118;2022-07-29T11:49:10;100510.41;;;49.00
70668;BMP280;58242;51.250;-1.118;2022-07-29T11:51:36;100510.78;;;49.19
70668;BMP280;58242;51.250;-1.118;2022-07-29T11:54:03;100508.59;;;49.41
70668;BMP280;58242;51.250;-1.118;2022-07-29T11:56:31;100504.63;;;49.68
70668;BMP280;58242;51.250;-1.118;2022-07-29T11:59:04;100505.13;;;49.81
70668;BMP280;58242;51.250;-1.118;2022-07-29T12:01:30;100501.97;;;50.18
70668;BMP280;58242;51.250;-1.118;2022-07-29T12:04:03;100498.22;;;50.55
70668;BMP280;58242;51.250;-1.118;2022-07-29T12:06:29;100503.25;;;50.97
70668;BMP280;58242;51.250;-1.118;2022-07-29T12:08:54;100503.31;;;51.40
70668;BMP280;58242;51.250;-1.118;2022-07-29T12:11:20;100492.72;;;51.75
70668;BMP280;58242;51.250;-1.118;2022-07-29T12:13:46;100497.91;;;51.95
70668;BMP280;58242;51.250;-1.118;2022-07-29T12:16:11;100488.06;;;52.05
70668;BMP280;58242;51.250;-1.118;2022-07-29T12:18:36;100491.66;;;52.06
70668;BMP280;58242;51.250;-1.118;2022-07-29T12:21:03;100481.31;;;52.19
70668;BMP280;58242;51.250;-1.118;2022-07-29T12:23:32;100485.44;;;52.44
70668;BMP280;58242;51.250;-1.118;2022-07-29T12:25:58;100478.97;;;52.34
70668;BMP280;58242;51.250;-1.118;2022-07-29T12:28:24;100483.25;;;52.08
70668;BMP280;58242;51.250;-1.118;2022-07-29T12:30:49;100481.75;;;52.07
70668;BMP280;58242;51.250;-1.118;2022-07-29T12:35:51;100468.25;;;50.88
70668;BMP280;58242;51.250;-1.118;2022-07-29T12:38:17;100471.75;;;49.82
70668;BMP280;58242;51.250;-1.118;2022-07-29T12:40:44;100470.16;;;49.33
70668;BMP280;58242;51.250;-1.118;2022-07-29T12:43:16;100464.06;;;49.36
70668;BMP280;58242;51.250;-1.118;2022-07-29T12:45:44;100461.56;;;49.48
70668;BMP280;58242;51.250;-1.118;2022-07-29T12:48:11;100463.91;;;48.89
70668;BMP280;58242;51.250;-1.118;2022-07-29T12:50:52;100462.47;;;47.64
70668;BMP280;58242;51.250;-1.118;2022-07-29T12:53:18;100462.53;;;46.46
70668;BMP280;58242;51.250;-1.118;2022-07-29T12:55:46;100451.13;;;45.51
70668;BMP280;58242;51.250;-1.118;2022-07-29T12:58:25;100459.88;;;44.58
70668;BMP280;58242;51.250;-1.118;2022-07-29T13:01:03;100464.03;;;43.70
70668;BMP280;58242;51.250;-1.118;2022-07-29T13:09:14;100467.81;;;42.18
70668;BMP280;58242;51.250;-1.118;2022-07-29T13:11:51;100459.97;;;41.83
70668;BMP280;58242;51.250;-1.118;2022-07-29T13:17:15;100455.44;;;41.40
70668;BMP280;58242;51.250;-1.118;2022-07-29T13:22:12;100450.19;;;41.21
70668;BMP280;58242;51.250;-1.118;2022-07-29T13:24:51;100459.84;;;41.31
70668;BMP280;58242;51.250;-1.118;2022-07-29T13:27:19;100460.84;;;41.67
70668;BMP280;58242;51.250;-1.118;2022-07-29T13:29:45;100449.91;;;42.21
70668;BMP280;58242;51.250;-1.118;2022-07-29T13:32:12;100448.84;;;42.70
70668;BMP280;58242;51.250;-1.118;2022-07-29T13:34:37;100439.91;;;43.08
70668;BMP280;58242;51.250;-1.118;2022-07-29T13:37:03;100443.94;;;43.30
70668;BMP280;58242;51.250;-1.118;2022-07-29T13:39:28;100451.94;;;43.26
70668;BMP280;58242;51.250;-1.118;2022-07-29T13:41:53;100464.19;;;43.29
70668;BMP280;58242;51.250;-1.118;2022-07-29T13:44:19;100451.66;;;43.42
70668;BMP280;58242;51.250;-1.118;2022-07-29T13:46:44;100458.97;;;43.69
70668;BMP280;58242;51.250;-1.118;2022-07-29T13:49:10;100450.56;;;43.94
70668;BMP280;58242;51.250;-1.118;2022-07-29T13:51:36;100459.34;;;43.91
70668;BMP280;58242;51.250;-1.118;2022-07-29T13:54:02;100462.03;;;43.96
70668;BMP280;58242;51.250;-1.118;2022-07-29T13:56:28;100460.25;;;43.98
70668;BMP280;58242;51.250;-1.118;2022-07-29T13:58:53;100464.69;;;44.07
70668;BMP280;58242;51.250;-1.118;2022-07-29T14:01:19;100458.00;;;44.22
70668;BMP280;58242;51.250;-1.118;2022-07-29T14:03:44;100459.06;;;44.07
70668;BMP280;58242;51.250;-1.118;2022-07-29T14:06:09;100461.59;;;43.79
70668;BMP280;58242;51.250;-1.118;2022-07-29T14:08:35;100459.81;;;43.46
70668;BMP280;58242;51.250;-1.118;2022-07-29T14:11:00;100467.34;;;43.20
70668;BMP280;58242;51.250;-1.118;2022-07-29T14:13:25;100460.41;;;42.85
70668;BMP280;58242;51.250;-1.118;2022-07-29T14:15:51;100455.25;;;42.48
70668;BMP280;58242;51.250;-1.118;2022-07-29T14:18:16;100455.28;;;42.42
70668;BMP280;58242;51.250;-1.118;2022-07-29T14:20:42;100455.94;;;42.30
70668;BMP280;58242;51.250;-1.118;2022-07-29T14:23:07;100452.34;;;42.06
70668;BMP280;58242;51.250;-1.118;2022-07-29T14:25:33;100455.50;;;41.98
70668;BMP280;58242;51.250;-1.118;2022-07-29T14:27:58;100446.13;;;41.90
70668;BMP280;58242;51.250;-1.118;2022-07-29T14:30:23;100454.47;;;41.66
70668;BMP280;58242;51.250;-1.118;2022-07-29T14:32:49;100454.16;;;41.36
70668;BMP280;58242;51.250;-1.118;2022-07-29T14:35:14;100447.22;;;41.08
70668;BMP280;58242;51.250;-1.118;2022-07-29T14:37:40;100456.03;;;40.78
70668;BMP280;58242;51.250;-1.118;2022-07-29T14:40:05;100440.78;;;40.52
70668;BMP280;58242;51.250;-1.118;2022-07-29T14:42:31;100437.28;;;40.41
70668;BMP280;58242;51.250;-1.118;2022-07-29T14:44:57;100425.56;;;40.37
70668;BMP280;58242;51.250;-1.118;2022-07-29T14:47:22;100426.59;;;40.40
70668;BMP280;58242;51.250;-1.118;2022-07-29T14:49:48;100433.69;;;40.51